DW2770 Cefalu IT current weather conditions

sailwx.info

Wind from 202 at 1 knots gusting 2

Air temperature 17.2° C
Dewpoint 13.3° C

Last reported at 2015-May-28 19:49 UTC.
Time now 2015-May-28 20:18 UTC

Location: N 38°02' E 014°02'.
View on Google Maps.

See reports from other nearby stations

  
Tides and Currents Weather Stations Pressure Air Temp Water Temp Dewpoint Dewpoint Depression Visibility Wind Speed Wind Dir Waves Ship Positions
date/time (UTC)wind fromknots sea level pressurealtimeterstation pressurevisibilityair tempwater tempwave heightnotes
2015-May-28 19:49 202 1 gusting 2 17.2
2015-May-28 19:39 215 2 gusting 4 17.2
2015-May-28 19:30 202 2 gusting 2 17.2
2015-May-28 19:19 202 4 gusting 6 17.2
2015-May-28 19:09 217 1 gusting 2 17.8
2015-May-28 18:59 225 3 gusting 4 17.8
2015-May-28 18:49 202 1 gusting 2 17.8
2015-May-28 18:39 202 2 gusting 4 17.8
2015-May-28 18:29 202 1 gusting 2 17.8
2015-May-28 18:19 202 0 gusting 4 18.3
2015-May-28 18:09 292 18.3
2015-May-28 17:59 248 2 gusting 2 18.3
2015-May-28 17:49 292 1 gusting 4 18.9
2015-May-28 17:39 266 3 gusting 4 18.9
2015-May-28 17:29 248 0 gusting 4 18.9
2015-May-28 17:19 248 0 gusting 6 19.4
2015-May-28 17:09 270 1 gusting 2 19.4
2015-May-28 16:59 292 1 gusting 5 19.4
2015-May-28 16:49 292 2 gusting 5 19.4
2015-May-28 16:39 267 3 gusting 6 19.4
2015-May-28 16:29 270 2 gusting 4 19.4
2015-May-28 16:19 225 1 gusting 4 18.9
2015-May-28 16:09 292 2 gusting 4 19.4
2015-May-28 15:59 315 2 gusting 2 19.4
2015-May-28 15:50 315 3 gusting 4 19.4
2015-May-28 15:40 330 19.4
2015-May-28 15:30 225 2 gusting 2 19.4
2015-May-28 15:20 292 2 gusting 5 19.4
2015-May-28 15:10 317 2 gusting 6 19.4
2015-May-28 15:00 292 4 gusting 11 19.4
2015-May-28 14:50 248 8 gusting 11 20.0
2015-May-28 14:40 310 6 gusting 8 20.0
2015-May-28 14:30 315 6 gusting 7 20.0
2015-May-28 14:20 225 6 gusting 11 19.4
2015-May-28 14:10 271 4 gusting 10 19.4
2015-May-28 14:00 225 4 gusting 10 19.4
2015-May-28 13:50 270 4 gusting 10 19.4
2015-May-28 13:40 292 9 gusting 10 19.4
2015-May-28 13:30 202 6 gusting 7 19.4
2015-May-28 13:20 225 6 gusting 10 19.4
2015-May-28 13:10 257 3 gusting 10 18.9
2015-May-28 13:00 292 7 gusting 10 18.9
2015-May-28 12:50 270 7 gusting 11 18.9
2015-May-28 12:40 306 6 gusting 14 19.4
2015-May-28 12:30 270 9 gusting 14 19.4
2015-May-28 12:20 270 3 gusting 8 19.4
2015-May-28 12:10 302 6 gusting 7 19.4
2015-May-28 12:00 315 2 gusting 8 18.9
2015-May-28 11:50 225 6 gusting 11 18.9
2015-May-28 11:40 315 5 gusting 6 18.9
2015-May-28 11:30 315 6 gusting 8 19.4
2015-May-28 11:20 292 6 gusting 10 19.4
2015-May-28 11:10 325 9 gusting 11 18.9
2015-May-28 11:00 292 10 gusting 10 18.3
2015-May-28 10:50 202 4 gusting 8 18.9
2015-May-28 10:40 272 8 gusting 8 18.9
2015-May-28 10:30 270 5 gusting 7 18.3
2015-May-28 10:20 270 5 gusting 7 18.3
2015-May-28 10:10 213 6 gusting 7 17.8
2015-May-28 10:00 270 6 gusting 11 17.2
2015-May-28 09:50 225 9 gusting 11 16.7
2015-May-28 09:40 217 1 gusting 7 16.7
2015-May-28 09:30 292 5 gusting 11 16.7
2015-May-28 09:20 18.3
2015-May-28 09:10 215 5 gusting 8 18.9
2015-May-28 09:00 270 8 gusting 8 18.9
2015-May-28 08:50 225 5 gusting 10 18.3
2015-May-28 08:40 302 9 gusting 10 18.3
2015-May-28 08:30 270 4 gusting 7 18.3
2015-May-28 08:20 225 6 gusting 7 17.8
2015-May-28 08:10 213 4 gusting 11 17.8
2015-May-28 08:00 270 11 gusting 11 16.7
2015-May-28 07:50 202 7 gusting 8 16.7
2015-May-28 07:40 218 8 gusting 13 16.1
2015-May-28 07:30 225 15 gusting 17 17.2
2015-May-28 07:20 202 5 gusting 8 17.8
2015-May-28 07:10 208 8 gusting 14 18.3
2015-May-28 07:00 202 10 gusting 14 17.8
2015-May-28 06:50 225 7 gusting 12 17.8
2015-May-28 06:40 225 8 gusting 12 17.8
2015-May-28 06:30 202 9 gusting 11 17.2
2015-May-28 06:20 225 10 gusting 13 17.2
2015-May-28 06:10 223 6 gusting 12 16.7
2015-May-28 06:00 202 8 gusting 10 16.7
2015-May-28 05:50 202 7 gusting 13 16.7
2015-May-28 05:40 248 11 gusting 15 16.7
2015-May-28 05:30 270 10 gusting 15 17.2
2015-May-28 05:20 202 5 gusting 8 17.2
2015-May-28 05:10 239 7 gusting 10 17.2
2015-May-28 05:00 202 6 gusting 12 17.2
2015-May-28 04:50 225 9 gusting 12 16.7
2015-May-28 04:40 233 8 gusting 8 16.7
2015-May-28 04:30 225 9 gusting 10 16.7
2015-May-28 04:20 270 6 gusting 10 16.7
2015-May-28 04:10 255 2 gusting 7 16.7
2015-May-28 04:00 267 6 gusting 6 16.7
2015-May-28 03:50 158 5 gusting 11 16.7
2015-May-28 03:40 242 6 gusting 13 16.7
2015-May-28 03:30 270 5 gusting 5 16.7
2015-May-28 03:20 292 4 gusting 11 16.7
2015-May-28 03:10 220 10 gusting 11 16.7
2015-May-28 03:00 270 4 gusting 14 16.7
2015-May-28 02:50 270 6 gusting 8 16.7
2015-May-28 02:40 220 4 gusting 8 16.7
2015-May-28 02:30 271 5 gusting 15 16.7
2015-May-28 02:20 270 11 gusting 13 16.7
2015-May-28 02:10 241 4 gusting 13 16.7
2015-May-28 02:00 205 10 gusting 10 16.7
2015-May-28 01:50 292 7 gusting 10 16.7
2015-May-28 01:40 241 10 gusting 10 16.7
2015-May-28 01:30 203 2 gusting 7 16.7
2015-May-28 01:20 225 6 gusting 6 16.7
2015-May-28 01:10 243 5 gusting 7 16.7
2015-May-28 01:00 224 0 gusting 6 15.6
2015-May-28 00:50 270 2 gusting 11 15.6
2015-May-28 00:40 279 10 gusting 11 17.2
2015-May-28 00:30 270 7 gusting 10 17.2
2015-May-28 00:20 225 5 gusting 10 17.2
2015-May-28 00:10 243 8 gusting 8 17.2
2015-May-28 00:00 248 8 gusting 11 17.8
2015-May-27 23:50 17.2
2015-May-27 23:40 242 8 gusting 8 17.2
2015-May-27 23:30 292 0 gusting 6 17.2
2015-May-27 23:20 248 6 gusting 11 17.2
2015-May-27 23:10 266 3 gusting 7 17.2
2015-May-27 23:00 214 6 gusting 8 17.2
2015-May-27 22:50 225 6 gusting 8 17.2
2015-May-27 22:40 284 2 gusting 10 16.7
2015-May-27 22:30 202 9 gusting 13 16.7
2015-May-27 22:20 270 6 gusting 6 17.8
2015-May-27 22:09 209 5 gusting 13 17.8
2015-May-27 22:00 247 7 gusting 13 17.2
2015-May-27 21:50 248 7 gusting 8 17.2
2015-May-27 21:40 266 5 gusting 10 17.2
2015-May-27 21:30 259 9 gusting 13 17.2
2015-May-27 21:20 248 10 gusting 11 17.2
2015-May-27 21:10 230 1 gusting 6 17.8
2015-May-27 21:00 204 4 gusting 6 17.8
2015-May-27 20:50 202 6 gusting 7 17.8
2015-May-27 20:40 248 4 gusting 10 17.8
2015-May-27 20:30 251 4 gusting 7 18.3
2015-May-27 20:20 225 6 gusting 10 18.3
2015-May-27 20:10 304 2 gusting 10 18.3
2015-May-27 20:00 257 3 gusting 6 18.3
2015-May-27 19:50 315 4 gusting 6 18.3
2015-May-27 19:40 225 2 gusting 6 18.3
2015-May-27 19:30 248 6 gusting 7 18.3
2015-May-27 19:20 248 4 gusting 7 18.3
2015-May-27 19:10 268 5 gusting 6 18.3
2015-May-27 19:00 052 5 gusting 6 18.3
2015-May-27 18:50 292 4 gusting 6 18.3
2015-May-27 18:40 247 5 gusting 6 18.3
2015-May-27 18:30 258 5 gusting 6 18.3
2015-May-27 18:20 248 5 gusting 6 18.3
2015-May-27 18:10 308 5 gusting 6 18.3
2015-May-27 18:00 286 2 gusting 12 18.3
2015-May-27 17:50 248 7 gusting 12 18.3
2015-May-27 17:40 250 2 gusting 8 18.9
2015-May-27 17:30 283 8 gusting 8 18.9
2015-May-27 17:20 270 6 gusting 7 18.9
2015-May-27 17:10 158 2 gusting 10 18.9
2015-May-27 17:00 262 8 gusting 10 18.9
2015-May-27 16:50 270 8 gusting 8 18.3
2015-May-27 16:40 248 5 gusting 10 18.3
2015-May-27 16:30 276 1 gusting 4 18.9
2015-May-27 16:20 270 6 gusting 11 18.3
2015-May-27 16:10 292 4 gusting 11 18.3
2015-May-27 16:00 300 10 gusting 11 17.8
2015-May-27 15:50 292 6 gusting 6 17.8
2015-May-27 15:40 271 5 gusting 6 17.8
2015-May-27 15:30 270 2 gusting 10 17.8
2015-May-27 15:20 270 2 gusting 6 17.8
2015-May-27 15:10 310 3 gusting 6 17.8
2015-May-27 15:00 095 17.8
2015-May-27 14:50 292 2 gusting 6 17.8
2015-May-27 14:40 246 6 gusting 8 18.3
2015-May-27 14:30 315 5 gusting 8 18.9
2015-May-27 14:20 248 5 gusting 6 18.9
2015-May-27 14:10 275 5 gusting 10 19.4
2015-May-27 14:00 309 9 gusting 10 19.4
2015-May-27 13:50 225 8 gusting 10 19.4
2015-May-27 13:40 270 2 gusting 6 18.9
2015-May-27 13:30 256 4 gusting 6 19.4
2015-May-27 13:20 248 4 gusting 6 19.4
2015-May-27 13:10 068 4 gusting 6 19.4
2015-May-27 13:00 285 5 gusting 6 18.9
2015-May-27 12:50 292 5 gusting 7 18.9
2015-May-27 12:40 338 5 gusting 6 19.4
2015-May-27 12:30 308 2 gusting 8 19.4
2015-May-27 12:20 248 2 gusting 6 20.0
2015-May-27 12:10 270 4 gusting 6 19.4
2015-May-27 12:00 219 5 gusting 6 19.4
2015-May-27 11:50 338 2 gusting 6 19.4
2015-May-27 11:40 226 5 gusting 6 19.4
2015-May-27 11:30 270 2 gusting 6 18.9
2015-May-27 11:20 315 2 gusting 5 18.9
2015-May-27 11:10 270 5 gusting 5 18.9
2015-May-27 11:00 286 4 gusting 5 18.9
2015-May-27 10:50 248 1 gusting 6 19.4
2015-May-27 10:40 313 4 gusting 6 18.9
2015-May-27 10:30 338 4 gusting 6 18.9
2015-May-27 10:20 270 5 gusting 6 18.9
2015-May-27 10:10 292 1 gusting 5 18.9
2015-May-27 10:00 323 4 gusting 5 18.9
2015-May-27 09:50 022 2 gusting 2 18.9
2015-May-27 09:40 158 1 gusting 4 18.3
2015-May-27 09:30 213 1 gusting 2 18.3
2015-May-27 09:20 338 1 gusting 4 18.3
2015-May-27 09:10 292 3 gusting 4 18.3
2015-May-27 09:00 307 18.3
2015-May-27 08:50 270 2 gusting 5 18.3
2015-May-27 08:40 338 2 gusting 2 18.3
2015-May-27 08:30 299 1 gusting 5 18.3
2015-May-27 08:20 338 3 gusting 4 18.3
2015-May-27 08:10 315 2 gusting 4 18.3
2015-May-27 08:00 007 18.3
2015-May-27 07:50 315 1 gusting 5 17.8
2015-May-27 07:40 17.8
2015-May-27 07:30 300 2 gusting 6 17.8
2015-May-27 07:20 270 2 gusting 2 17.8
2015-May-27 07:10 338 2 gusting 5 17.2
2015-May-27 07:00 324 2 gusting 2 16.7
2015-May-27 06:50 292 1 gusting 2 17.2
2015-May-27 06:40 338 1 gusting 5 17.2
2015-May-27 06:30 295 1 gusting 5 17.2
2015-May-27 06:20 292 2 gusting 7 17.2
2015-May-27 06:10 248 6 gusting 6 17.2
2015-May-27 06:00 226 2 gusting 6 17.2
2015-May-27 05:50 270 2 gusting 5 17.2
2015-May-27 05:40 248 3 gusting 4 17.2
2015-May-27 05:30 202 2 gusting 5 16.7
2015-May-27 05:20 248 2 gusting 6 16.7
2015-May-27 05:10 225 2 gusting 7 16.7
2015-May-27 05:00 248 2 gusting 4 16.1
2015-May-27 04:50 248 2 gusting 2 15.6
2015-May-27 04:40 225 1 gusting 2 15.0
2015-May-27 04:30 202 2 gusting 2 14.4
2015-May-27 04:20 180 1 gusting 2 15.0
2015-May-27 04:10 202 0 gusting 1 14.4
2015-May-27 04:00 202 0 gusting 1 14.4
2015-May-27 03:50 202 14.4
2015-May-27 03:40 202 14.4
2015-May-27 03:30 202 14.4
2015-May-27 03:20 202 1 gusting 1 14.4
2015-May-27 03:10 270 14.4
2015-May-27 03:00 256 1 gusting 1 14.4
2015-May-27 02:50 248 1 gusting 1 13.9
2015-May-27 02:40 202 13.9
2015-May-27 02:30 189 2 gusting 2 13.9
2015-May-27 02:20 180 1 gusting 4 13.9
2015-May-27 02:10 202 4 gusting 4 13.9
2015-May-27 02:00 180 4 gusting 4 13.3
2015-May-27 01:50 180 4 gusting 4 13.3
2015-May-27 01:40 202 3 gusting 4 13.3
2015-May-27 01:30 180 13.9
2015-May-27 01:20 202 13.9
2015-May-27 01:10 180 13.9
2015-May-27 01:00 134 14.4
2015-May-27 00:50 202 4 gusting 4 14.4
2015-May-27 00:40 248 2 gusting 2 15.0
2015-May-27 00:30 202 15.0
2015-May-27 00:20 202 0 gusting 0 15.0
2015-May-27 00:10 225 15.0
2015-May-27 00:00 225 15.0
2015-May-26 23:50 090 15.0
2015-May-26 23:40 112 1 gusting 1 14.4
2015-May-26 23:30 208 1 gusting 1 14.4
2015-May-26 23:20 202 14.4
2015-May-26 23:10 180 0 gusting 1 14.4
2015-May-26 23:00 090 14.4
2015-May-26 22:50 069 0 gusting 1 14.4
2015-May-26 22:40 068 14.4
2015-May-26 22:30 090 14.4
2015-May-26 22:20 112 14.4
2015-May-26 22:10 158 14.4
2015-May-26 22:00 158 14.4
2015-May-26 21:50 180 14.4
2015-May-26 21:40 180 14.4
2015-May-26 21:30 195 14.4
2015-May-26 21:20 202 0 gusting 0 14.4
2015-May-26 21:10 090 14.4
2015-May-26 21:00 090 15.0
2015-May-26 20:50 090 0 gusting 0 14.4
2015-May-26 20:40 202 15.0
2015-May-26 20:30 202 15.0
2015-May-26 20:20 202 1 gusting 1 15.0
2015-May-26 20:10 180 0 gusting 4 15.0
2015-May-26 20:00 202 15.0